createdAt,value
2019-05-28T00:00:10.167Z,8.60
2019-05-28T00:02:38.970Z,8.50
2019-05-28T00:05:08.176Z,8.60
2019-05-28T00:07:37.018Z,8.50
2019-05-28T00:10:06.683Z,8.50
2019-05-28T00:12:36.274Z,8.50
2019-05-28T00:15:06.434Z,8.40
2019-05-28T00:17:35.168Z,8.30
2019-05-28T00:20:06.281Z,8.30
2019-05-28T00:22:38.052Z,8.30
2019-05-28T00:25:08.858Z,8.30
2019-05-28T00:27:37.668Z,8.40
2019-05-28T00:30:19.028Z,8.30
2019-05-28T00:32:38.299Z,8.40
2019-05-28T00:35:07.548Z,8.50
2019-05-28T00:37:36.391Z,8.40
2019-05-28T00:40:07.910Z,8.40
2019-05-28T00:42:36.711Z,8.50
2019-05-28T00:45:10.142Z,8.50
2019-05-28T00:47:41.780Z,8.40
2019-05-28T00:50:12.001Z,8.50
2019-05-28T00:52:40.738Z,8.50
2019-05-28T00:55:11.005Z,8.50
2019-05-28T00:57:45.119Z,8.50
2019-05-28T01:00:14.214Z,8.40
2019-05-28T01:02:43.082Z,8.30
2019-05-28T01:05:11.921Z,8.40
2019-05-28T01:07:40.662Z,8.40
2019-05-28T01:10:09.806Z,8.40
2019-05-28T01:12:38.985Z,8.40
2019-05-28T01:15:08.405Z,8.40
2019-05-28T01:17:38.626Z,8.20
2019-05-28T01:20:09.142Z,8.00
2019-05-28T01:22:37.948Z,8.10
2019-05-28T01:25:07.095Z,8.10
2019-05-28T01:27:35.817Z,8.20
2019-05-28T01:30:06.653Z,8.20
2019-05-28T01:32:35.497Z,8.10
2019-05-28T01:35:07.309Z,8.10
2019-05-28T01:37:36.089Z,8.20
2019-05-28T01:40:08.512Z,8.20
2019-05-28T01:42:37.225Z,8.10
2019-05-28T01:45:09.432Z,7.90
2019-05-28T01:47:38.285Z,8.00
2019-05-28T01:50:08.204Z,8.00
2019-05-28T01:52:36.928Z,8.00
2019-05-28T01:55:07.076Z,8.10
2019-05-28T01:57:35.800Z,8.00
2019-05-28T02:00:07.541Z,7.90
2019-05-28T02:02:36.398Z,7.80
2019-05-28T02:05:09.474Z,7.90
2019-05-28T02:07:39.797Z,8.00
2019-05-28T02:10:08.994Z,7.90
2019-05-28T02:12:37.814Z,7.90
2019-05-28T02:15:09.157Z,7.90
2019-05-28T02:17:38.123Z,7.90
2019-05-28T02:20:09.431Z,8.00
2019-05-28T02:22:38.270Z,8.00
2019-05-28T02:25:10.637Z,8.00
2019-05-28T02:27:39.420Z,8.00
2019-05-28T02:30:13.482Z,7.90
2019-05-28T02:32:42.224Z,7.90
2019-05-28T02:35:11.423Z,7.80
2019-05-28T02:37:40.295Z,7.80
2019-05-28T02:40:09.710Z,7.80
2019-05-28T02:42:38.503Z,7.60
2019-05-28T02:45:09.398Z,7.60
2019-05-28T02:47:38.226Z,7.60
2019-05-28T02:50:09.224Z,7.60
2019-05-28T02:52:39.266Z,7.50
2019-05-28T02:55:10.021Z,7.50
2019-05-28T02:57:40.448Z,7.50
2019-05-28T03:00:16.444Z,7.50
2019-05-28T03:02:46.770Z,7.40
2019-05-28T03:05:16.440Z,7.40
2019-05-28T03:07:48.303Z,7.40
2019-05-28T03:11:02.303Z,7.40
2019-05-28T03:13:07.893Z,7.50
2019-05-28T03:15:39.658Z,7.40
2019-05-28T03:18:10.084Z,7.20
2019-05-28T03:20:41.209Z,7.30
2019-05-28T03:23:11.442Z,7.40
2019-05-28T03:25:46.454Z,7.40
2019-05-28T03:28:16.659Z,7.40
2019-05-28T03:30:45.391Z,7.40
2019-05-28T03:33:14.541Z,7.30
2019-05-28T03:35:44.972Z,7.30
2019-05-28T03:38:14.596Z,7.40
2019-05-28T03:40:47.998Z,7.40
2019-05-28T03:43:17.092Z,7.40
2019-05-28T03:45:46.192Z,7.30
2019-05-28T03:48:15.030Z,7.30
2019-05-28T03:50:43.848Z,7.30
2019-05-28T03:53:12.655Z,7.20
2019-05-28T03:55:41.532Z,7.30
2019-05-28T03:58:10.380Z,7.30
2019-05-28T04:00:39.134Z,7.30
2019-05-28T04:03:08.016Z,7.30
2019-05-28T04:05:37.204Z,7.30
2019-05-28T04:08:05.943Z,7.30
2019-05-28T04:10:35.014Z,7.50
2019-05-28T04:13:03.739Z,7.40
2019-05-28T04:15:33.268Z,7.50
2019-05-28T04:18:02.198Z,8.20
2019-05-28T04:20:30.994Z,9.80
2019-05-28T04:22:59.711Z,9.30
2019-05-28T04:25:28.544Z,8.70
2019-05-28T04:27:57.375Z,8.30
2019-05-28T04:30:28.925Z,7.90
2019-05-28T04:32:58.160Z,7.70
2019-05-28T04:35:26.977Z,7.50
2019-05-28T04:37:55.700Z,7.50
2019-05-28T04:40:24.473Z,7.50
2019-05-28T04:42:53.265Z,7.40
2019-05-28T04:45:22.052Z,7.50
2019-05-28T04:47:50.884Z,7.50
2019-05-28T04:50:19.703Z,7.80
2019-05-28T04:52:48.517Z,10.30
2019-05-28T04:55:17.358Z,10.90
2019-05-28T04:57:46.068Z,9.80
2019-05-28T05:00:15.602Z,9.30
2019-05-28T05:02:58.767Z,8.80
2019-05-28T05:05:16.122Z,8.70
2019-05-28T05:07:45.600Z,8.60
2019-05-28T05:10:18.078Z,8.40
2019-05-28T05:12:45.074Z,8.40
2019-05-28T05:15:14.076Z,8.00
2019-05-28T05:17:44.325Z,7.90
2019-05-28T05:20:13.222Z,7.60
2019-05-28T05:22:42.350Z,7.50
2019-05-28T05:25:12.500Z,7.60
2019-05-28T05:27:41.302Z,7.60
2019-05-28T05:30:10.326Z,7.50
2019-05-28T05:32:39.170Z,7.70
2019-05-28T05:35:08.097Z,7.60
2019-05-28T05:37:36.859Z,7.70
2019-05-28T05:40:06.901Z,7.60
2019-05-28T05:42:35.753Z,7.40
2019-05-28T05:45:07.643Z,7.40
2019-05-28T05:47:36.838Z,7.40
2019-05-28T05:50:08.980Z,7.50
2019-05-28T05:52:38.382Z,7.50
2019-05-28T05:55:08.440Z,7.40
2019-05-28T05:57:37.274Z,7.50
2019-05-28T06:00:11.367Z,7.50
2019-05-28T06:02:38.300Z,7.60
2019-05-28T06:05:08.579Z,7.80
2019-05-28T06:07:37.379Z,7.80
2019-05-28T06:10:09.228Z,7.50
2019-05-28T06:12:37.956Z,7.30
2019-05-28T06:15:13.710Z,7.30
2019-05-28T06:17:45.289Z,7.30
2019-05-28T06:20:15.009Z,7.30
2019-05-28T06:22:45.301Z,7.30
2019-05-28T06:25:14.577Z,7.30
2019-05-28T06:27:44.922Z,7.20
2019-05-28T06:30:14.072Z,7.20
2019-05-28T06:32:42.821Z,7.30
2019-05-28T06:35:11.748Z,7.50
2019-05-28T06:37:40.480Z,7.70
2019-05-28T06:40:09.906Z,7.80
2019-05-28T06:42:40.021Z,7.90
2019-05-28T06:45:10.355Z,8.10
2019-05-28T06:47:44.991Z,8.40
2019-05-28T06:50:16.378Z,8.40
2019-05-28T06:52:45.395Z,8.60
2019-05-28T06:55:14.247Z,8.60
2019-05-28T06:57:43.030Z,8.60
2019-05-28T07:00:14.158Z,8.40
2019-05-28T07:02:43.168Z,8.50
2019-05-28T07:05:12.348Z,8.60
2019-05-28T07:07:41.104Z,8.60
2019-05-28T07:10:10.296Z,8.60
2019-05-28T07:12:39.158Z,8.60
2019-05-28T07:15:09.272Z,8.70
2019-05-28T07:17:38.273Z,8.70
2019-05-28T07:20:09.013Z,8.80
2019-05-28T07:22:37.763Z,9.20
2019-05-28T07:25:07.626Z,9.50
2019-05-28T07:27:36.469Z,9.20
2019-05-28T07:30:08.504Z,9.50
2019-05-28T07:32:40.033Z,9.00
2019-05-28T07:35:08.870Z,8.80
2019-05-28T07:37:40.648Z,9.10
2019-05-28T07:40:10.290Z,9.00
2019-05-28T07:42:39.211Z,9.00
2019-05-28T07:45:08.556Z,8.60
2019-05-28T07:47:37.400Z,8.30
2019-05-28T07:50:07.690Z,8.30
2019-05-28T07:52:36.630Z,8.40
2019-05-28T07:55:06.111Z,8.30
2019-05-28T07:57:34.996Z,8.30
2019-05-28T08:00:05.788Z,8.50
2019-05-28T08:02:34.985Z,8.30
2019-05-28T08:05:05.121Z,8.70
2019-05-28T08:07:39.675Z,9.20
2019-05-28T08:10:09.369Z,9.40
2019-05-28T08:12:39.048Z,9.30
2019-05-28T08:15:08.458Z,8.80
2019-05-28T08:17:37.471Z,8.50
2019-05-28T08:20:06.935Z,7.80
2019-05-28T08:22:42.471Z,7.90
2019-05-28T08:25:23.633Z,8.00
2019-05-28T08:27:37.896Z,8.20
2019-05-28T08:30:09.536Z,8.30
2019-05-28T08:32:38.406Z,8.20
2019-05-28T08:35:07.220Z,8.30
2019-05-28T08:37:36.048Z,8.30
2019-05-28T08:40:07.421Z,8.50
2019-05-28T08:42:36.258Z,8.60
2019-05-28T08:45:08.302Z,8.30
2019-05-28T08:47:37.244Z,8.30
2019-05-28T08:50:13.693Z,8.40
2019-05-28T08:52:43.143Z,8.40
2019-05-28T08:55:12.148Z,8.60
2019-05-28T08:57:41.116Z,8.70
2019-05-28T09:00:11.453Z,8.70
2019-05-28T09:02:41.728Z,9.00
2019-05-28T09:05:25.001Z,9.40
2019-05-28T09:07:41.168Z,9.50
2019-05-28T09:10:10.171Z,9.40
2019-05-28T09:12:39.268Z,8.60
2019-05-28T09:15:08.303Z,8.10
2019-05-28T09:17:37.153Z,8.00
2019-05-28T09:20:07.702Z,7.90
2019-05-28T09:22:36.591Z,8.00
2019-05-28T09:25:06.829Z,8.00
2019-05-28T09:27:35.651Z,8.10
2019-05-28T09:30:08.694Z,8.20
2019-05-28T09:32:37.732Z,8.50
2019-05-28T09:35:07.676Z,8.80
2019-05-28T09:37:36.650Z,9.10
2019-05-28T09:40:07.826Z,9.10
2019-05-28T09:42:36.601Z,9.00
2019-05-28T09:45:21.868Z,8.90
2019-05-28T09:47:37.786Z,9.10
2019-05-28T09:50:26.996Z,9.30
2019-05-28T09:52:52.994Z,9.20
2019-05-28T09:55:10.765Z,8.70
2019-05-28T09:57:47.309Z,8.30
2019-05-28T10:00:20.809Z,8.20
2019-05-28T10:02:52.749Z,8.30
2019-05-28T10:05:21.950Z,8.50
2019-05-28T10:07:51.220Z,8.80
2019-05-28T10:10:20.456Z,9.10
2019-05-28T10:12:49.387Z,9.20
2019-05-28T10:15:18.710Z,9.40
2019-05-28T10:17:47.451Z,9.30
2019-05-28T10:20:17.919Z,9.10
2019-05-28T10:22:46.755Z,9.10
2019-05-28T10:25:17.342Z,9.20
2019-05-28T10:28:00.028Z,9.10
2019-05-28T10:30:18.543Z,9.10
2019-05-28T10:32:47.271Z,9.20
2019-05-28T10:35:16.364Z,9.50
2019-05-28T10:37:45.233Z,9.70
2019-05-28T10:40:17.269Z,9.60
2019-05-28T10:42:46.068Z,9.60
2019-05-28T10:45:18.284Z,9.70
2019-05-28T10:47:47.094Z,9.80
2019-05-28T10:50:18.535Z,10.20
2019-05-28T10:52:47.406Z,10.60
2019-05-28T10:55:16.842Z,10.50
2019-05-28T10:57:45.593Z,10.30
2019-05-28T11:00:16.291Z,10.30
2019-05-28T11:02:45.126Z,10.60
2019-05-28T11:05:14.612Z,10.70
2019-05-28T11:07:43.377Z,10.50
2019-05-28T11:10:24.916Z,10.30
2019-05-28T11:12:49.753Z,10.40
2019-05-28T11:15:19.275Z,10.50
2019-05-28T11:17:48.104Z,10.50
2019-05-28T11:20:17.927Z,10.60
2019-05-28T11:22:46.729Z,10.60
2019-05-28T11:25:16.348Z,10.50
2019-05-28T11:27:45.522Z,10.70
2019-05-28T11:30:16.743Z,11.00
2019-05-28T11:32:46.579Z,10.90
2019-05-28T11:35:16.930Z,11.10
2019-05-28T11:37:45.758Z,11.50
2019-05-28T11:40:15.070Z,11.40
2019-05-28T11:42:43.908Z,11.60
2019-05-28T11:45:14.782Z,11.70
2019-05-28T11:47:43.383Z,11.80
2019-05-28T11:50:15.636Z,11.60
2019-05-28T11:52:44.488Z,11.10
2019-05-28T11:55:14.822Z,10.90
2019-05-28T11:57:43.871Z,10.70
2019-05-28T12:00:14.108Z,10.90
2019-05-28T12:02:42.937Z,10.90
2019-05-28T12:05:12.391Z,10.70
2019-05-28T12:07:42.664Z,10.60
2019-05-28T12:10:13.491Z,10.80
2019-05-28T12:12:42.402Z,10.70
2019-05-28T12:15:12.306Z,10.80
2019-05-28T12:17:44.834Z,11.20
2019-05-28T12:20:14.293Z,11.50
2019-05-28T12:22:43.521Z,11.40
2019-05-28T12:25:14.129Z,11.50
2019-05-28T12:27:42.963Z,11.40
2019-05-28T12:30:18.218Z,11.30
2019-05-28T12:32:45.601Z,11.30
2019-05-28T12:35:27.583Z,11.10
2019-05-28T12:37:49.752Z,11.10
2019-05-28T12:40:17.645Z,11.20
2019-05-28T12:42:46.472Z,11.30
2019-05-28T12:45:16.388Z,11.30
2019-05-28T12:47:45.226Z,11.10
2019-05-28T12:50:19.844Z,11.20
2019-05-28T12:52:47.352Z,11.30
2019-05-28T12:55:16.151Z,11.40
2019-05-28T12:57:47.780Z,11.50
2019-05-28T13:00:16.852Z,11.60
2019-05-28T13:02:46.461Z,11.70
2019-05-28T13:05:18.245Z,11.70
2019-05-28T13:08:06.251Z,11.70
2019-05-28T13:10:25.251Z,11.60
2019-05-28T13:12:54.094Z,11.60
2019-05-28T13:15:23.248Z,11.70
2019-05-28T13:17:53.584Z,11.70
2019-05-28T13:20:22.550Z,11.50
2019-05-28T13:22:54.238Z,11.80
2019-05-28T13:25:24.374Z,12.10
2019-05-28T13:27:53.150Z,12.20
2019-05-28T13:30:22.909Z,12.30
2019-05-28T13:32:57.834Z,11.90
2019-05-28T13:35:26.979Z,11.80
2019-05-28T13:37:55.813Z,11.40
2019-05-28T13:40:24.697Z,11.20
2019-05-28T13:42:53.521Z,11.30
2019-05-28T13:45:22.513Z,11.70
2019-05-28T13:47:51.350Z,11.60
2019-05-28T13:50:20.788Z,11.40
2019-05-28T13:52:49.556Z,11.50
2019-05-28T13:55:18.419Z,11.50
2019-05-28T13:57:47.228Z,11.50
2019-05-28T14:00:19.947Z,11.20
2019-05-28T14:02:48.761Z,11.10
2019-05-28T14:05:19.552Z,11.10
2019-05-28T14:07:48.371Z,11.10
2019-05-28T14:10:17.754Z,11.40
2019-05-28T14:12:48.009Z,11.30
2019-05-28T14:15:17.738Z,11.30
2019-05-28T14:17:46.595Z,11.50
2019-05-28T14:20:18.737Z,11.60
2019-05-28T14:22:47.555Z,11.70
2019-05-28T14:25:17.162Z,11.70
2019-05-28T14:27:45.950Z,11.40
2019-05-28T14:30:17.374Z,11.50
2019-05-28T14:32:46.164Z,11.50
2019-05-28T14:35:15.008Z,11.50
2019-05-28T14:37:43.842Z,11.40
2019-05-28T14:40:13.620Z,11.60
2019-05-28T14:42:42.742Z,11.90
2019-05-28T14:45:13.016Z,12.10
2019-05-28T14:47:41.873Z,12.10
2019-05-28T14:50:11.287Z,12.20
2019-05-28T14:52:40.197Z,12.20
2019-05-28T14:55:10.448Z,12.30
2019-05-28T14:57:39.590Z,12.50
2019-05-28T15:00:10.506Z,12.40
2019-05-28T15:02:39.686Z,12.40
2019-05-28T15:05:09.067Z,12.10
2019-05-28T15:07:37.910Z,11.70
2019-05-28T15:10:08.029Z,11.60
2019-05-28T15:12:38.289Z,11.80
2019-05-28T15:15:09.124Z,11.60
2019-05-28T15:17:38.163Z,11.50
2019-05-28T15:20:11.753Z,11.40
2019-05-28T15:22:40.522Z,11.40
2019-05-28T15:25:09.977Z,11.30
2019-05-28T15:27:38.988Z,11.20
2019-05-28T15:30:09.770Z,11.10
2019-05-28T15:32:38.838Z,10.80
2019-05-28T15:35:08.259Z,10.70
2019-05-28T15:37:37.065Z,10.60
2019-05-28T15:40:07.291Z,10.70
2019-05-28T15:42:36.102Z,10.70
2019-05-28T15:45:10.331Z,11.10
2019-05-28T15:47:39.472Z,11.30
2019-05-28T15:50:09.078Z,11.70
2019-05-28T15:52:38.044Z,11.90
2019-05-28T15:55:07.336Z,12.00
2019-05-28T15:57:36.138Z,12.20
2019-05-28T16:00:09.784Z,12.60
2019-05-28T16:02:38.566Z,13.10
2019-05-28T16:05:07.571Z,12.70
2019-05-28T16:07:36.767Z,12.60
2019-05-28T16:10:10.652Z,12.90
2019-05-28T16:12:39.448Z,12.80
2019-05-28T16:15:09.122Z,12.70
2019-05-28T16:17:38.019Z,12.70
2019-05-28T16:20:08.472Z,12.90
2019-05-28T16:22:37.323Z,13.00
2019-05-28T16:25:10.162Z,13.00
2019-05-28T16:27:38.978Z,12.90
2019-05-28T16:30:09.935Z,12.80
2019-05-28T16:32:38.735Z,12.60
2019-05-28T16:35:08.197Z,12.60
2019-05-28T16:37:37.006Z,12.60
2019-05-28T16:40:15.821Z,12.50
2019-05-28T16:42:39.800Z,12.60
2019-05-28T16:45:10.331Z,12.50
2019-05-28T16:47:39.265Z,12.30
2019-05-28T16:50:08.789Z,12.30
2019-05-28T16:52:37.761Z,12.10
2019-05-28T16:55:08.470Z,12.00
2019-05-28T16:57:37.361Z,12.00
2019-05-28T17:00:07.792Z,12.00
2019-05-28T17:02:36.609Z,12.20
2019-05-28T17:05:07.537Z,12.20
2019-05-28T17:07:36.415Z,12.10
2019-05-28T17:10:07.118Z,11.90
2019-05-28T17:12:36.399Z,11.80
2019-05-28T17:15:08.066Z,11.70
2019-05-28T17:17:37.101Z,11.50
2019-05-28T17:20:10.307Z,11.40
2019-05-28T17:22:39.288Z,11.40
2019-05-28T17:25:11.895Z,11.30
2019-05-28T17:27:39.136Z,11.30
2019-05-28T17:30:18.949Z,11.30
2019-05-28T17:32:39.067Z,11.40
2019-05-28T17:35:08.341Z,11.30
2019-05-28T17:37:41.325Z,11.30
2019-05-28T17:40:11.815Z,11.30
2019-05-28T17:42:40.619Z,11.30
2019-05-28T17:45:09.887Z,11.20
2019-05-28T17:47:43.164Z,11.10
2019-05-28T17:50:09.224Z,10.90
2019-05-28T17:52:41.027Z,10.90
2019-05-28T17:55:09.844Z,10.90
2019-05-28T17:57:38.679Z,11.00
2019-05-28T18:00:09.605Z,11.00
2019-05-28T18:02:38.493Z,11.00
2019-05-28T18:05:07.871Z,11.00
2019-05-28T18:07:36.776Z,11.10
2019-05-28T18:10:10.437Z,11.10
2019-05-28T18:12:39.294Z,11.10
2019-05-28T18:15:08.731Z,11.10
2019-05-28T18:17:37.652Z,11.20
2019-05-28T18:20:07.905Z,11.00
2019-05-28T18:22:39.715Z,10.90
2019-05-28T18:25:09.236Z,11.00
2019-05-28T18:27:38.269Z,11.00
2019-05-28T18:30:11.475Z,11.00
2019-05-28T18:32:43.529Z,11.00
2019-05-28T18:35:12.625Z,11.00
2019-05-28T18:37:42.988Z,11.00
2019-05-28T18:40:13.074Z,10.90
2019-05-28T18:42:41.917Z,10.90
2019-05-28T18:45:10.979Z,10.90
2019-05-28T18:47:40.733Z,10.70
2019-05-28T18:50:16.134Z,10.70
2019-05-28T18:52:44.968Z,10.60
2019-05-28T18:55:13.733Z,10.60
2019-05-28T18:57:42.551Z,10.60
2019-05-28T19:00:12.594Z,10.70
2019-05-28T19:02:41.424Z,10.50
2019-05-28T19:05:12.712Z,10.60
2019-05-28T19:07:43.147Z,10.50
2019-05-28T19:10:12.769Z,10.50
2019-05-28T19:12:41.710Z,10.60
2019-05-28T19:15:12.109Z,10.70
2019-05-28T19:17:45.235Z,10.60
2019-05-28T19:20:14.666Z,10.50
2019-05-28T19:22:45.286Z,10.40
2019-05-28T19:25:15.826Z,10.30
2019-05-28T19:27:44.844Z,10.20
2019-05-28T19:30:15.243Z,10.20
2019-05-28T19:32:44.814Z,10.30
2019-05-28T19:35:13.732Z,10.30
2019-05-28T19:37:42.980Z,10.30
2019-05-28T19:40:15.569Z,10.20
2019-05-28T19:42:44.964Z,10.20
2019-05-28T19:45:16.283Z,10.30
2019-05-28T19:47:47.762Z,10.20
2019-05-28T19:50:16.585Z,10.20
2019-05-28T19:52:45.418Z,10.20
2019-05-28T19:55:14.307Z,10.10
2019-05-28T19:57:44.026Z,10.10
2019-05-28T20:00:13.353Z,10.00
2019-05-28T20:02:43.632Z,9.90
2019-05-28T20:05:15.188Z,9.80
2019-05-28T20:07:44.151Z,9.70
2019-05-28T20:10:12.965Z,9.70
2019-05-28T20:12:41.828Z,9.70
2019-05-28T20:15:12.751Z,9.50
2019-05-28T20:17:41.649Z,9.40
2019-05-28T20:20:17.088Z,9.50
2019-05-28T20:22:45.958Z,9.50
2019-05-28T20:25:14.960Z,9.50
2019-05-28T20:27:43.802Z,9.40
2019-05-28T20:30:13.244Z,9.40
2019-05-28T20:32:42.806Z,9.40
2019-05-28T20:35:12.060Z,9.20
2019-05-28T20:37:40.842Z,9.10
2019-05-28T20:40:10.413Z,9.00
2019-05-28T20:42:39.320Z,8.90
2019-05-28T20:45:11.296Z,8.80
2019-05-28T20:47:39.745Z,8.80
2019-05-28T20:50:09.462Z,8.70
2019-05-28T20:52:38.526Z,8.70
2019-05-28T20:55:08.620Z,8.60
2019-05-28T20:57:38.984Z,8.60
2019-05-28T21:00:10.225Z,8.60
2019-05-28T21:02:42.179Z,8.60
2019-05-28T21:05:12.451Z,8.50
2019-05-28T21:07:50.105Z,8.50
2019-05-28T21:10:18.984Z,8.50
2019-05-28T21:12:48.380Z,8.50
2019-05-28T21:15:17.660Z,8.40
2019-05-28T21:17:46.506Z,8.40
2019-05-28T21:20:15.646Z,8.40
2019-05-28T21:22:44.428Z,8.30
2019-05-28T21:25:14.481Z,8.30
2019-05-28T21:27:43.233Z,8.40
2019-05-28T21:30:12.232Z,8.30
2019-05-28T21:32:41.021Z,8.40
2019-05-28T21:35:09.914Z,8.30
2019-05-28T21:37:38.789Z,8.30
2019-05-28T21:40:13.154Z,8.30
2019-05-28T21:42:41.882Z,8.30
2019-05-28T21:45:11.152Z,8.40
2019-05-28T21:47:39.957Z,8.40
2019-05-28T21:50:09.954Z,8.50
2019-05-28T21:52:38.680Z,8.50
2019-05-28T21:55:08.886Z,8.50
2019-05-28T21:57:37.679Z,8.50
2019-05-28T22:00:16.313Z,8.60
2019-05-28T22:02:45.222Z,8.60
2019-05-28T22:05:14.552Z,8.60
2019-05-28T22:07:43.384Z,8.60
2019-05-28T22:10:12.344Z,8.50
2019-05-28T22:12:41.170Z,8.50
2019-05-28T22:15:13.050Z,8.40
2019-05-28T22:17:41.880Z,8.40
2019-05-28T22:20:11.826Z,8.40
2019-05-28T22:22:40.548Z,8.40
2019-05-28T22:25:09.744Z,8.30
2019-05-28T22:27:38.531Z,8.20
2019-05-28T22:30:09.651Z,8.10
2019-05-28T22:32:38.446Z,8.00
2019-05-28T22:35:08.748Z,7.90
2019-05-28T22:37:38.961Z,7.80
2019-05-28T22:40:11.000Z,7.80
2019-05-28T22:42:39.862Z,7.70
2019-05-28T22:45:09.265Z,7.70
2019-05-28T22:47:38.016Z,7.70
2019-05-28T22:50:19.354Z,7.70
2019-05-28T22:52:38.942Z,7.70
2019-05-28T22:55:11.905Z,7.80
2019-05-28T22:57:40.695Z,7.80
2019-05-28T23:00:10.296Z,7.80
2019-05-28T23:02:39.086Z,7.90
2019-05-28T23:05:10.886Z,7.90
2019-05-28T23:07:40.985Z,7.90
2019-05-28T23:10:11.126Z,7.90
2019-05-28T23:12:45.697Z,7.90
2019-05-28T23:15:15.003Z,7.90
2019-05-28T23:17:43.774Z,8.00
2019-05-28T23:20:13.201Z,8.00
2019-05-28T23:22:42.017Z,8.00
2019-05-28T23:25:11.899Z,7.90
2019-05-28T23:27:42.206Z,7.90
2019-05-28T23:30:24.319Z,8.00
2019-05-28T23:32:43.517Z,8.00
2019-05-28T23:35:12.744Z,8.10
2019-05-28T23:37:41.647Z,8.10
2019-05-28T23:40:13.445Z,8.20
2019-05-28T23:42:42.226Z,8.20
2019-05-28T23:45:11.859Z,8.20
2019-05-28T23:47:40.695Z,8.30
2019-05-28T23:50:14.842Z,8.20
2019-05-28T23:52:41.331Z,8.10
2019-05-28T23:55:10.201Z,8.00
2019-05-28T23:57:39.034Z,7.90
